Impacts METAR Board
IDs:

KTPA - Tampa Intl Arpt, FL, US

Updated at: 0800 UTC 19 Jun 2018
Potential Impact None Slight Moderate High
Time 18/20Z 18/21Z 18/22Z 18/23Z 19/00Z 19/01Z 19/02Z 19/03Z 19/04Z 19/05Z 19/06Z 19/07Z 19/08Z
Temp89 89 90 90 84 80 82 83 83 83 81 80 80
Dewpt71 71 74 74 73 73 74 73 73 73 72 72 71
Altim30.06 30.04 30.04 30.03 30.05 30.05 30.07 30.07 30.08 30.06 30.05 30.03 30.03
VIS10 10 10 10 10 10 10 10 10 10 10 10 10
CIG47 45 45 340 37 230 55 300 35 -- -- -- --
CoverBKNBKNBKNBKNBKNBKNBKNBKNBKNFEWFEWSCTSCT
FltCatVFRVFRVFRVFRVFRVFRVFRVFRVFRVFRVFRVFRVFR
WX------TSTS----------------
WDir220250270270350350350303001201100
WSpd6 5 7 9 6 5 6 3 4 3 5 4 4
WGst-- -- -- -- -- -- -- -- -- -- -- -- --
Raw hourly METARs
KTPA 181953Z 22006KT 10SM BKN047TCU BKN340 32/22 A3006 RMK AO2 SLP179 TCU OHD AND ALQDS T03170217
KTPA 182102Z 25005KT 10SM BKN045TCU BKN340 32/22 A3004 RMK AO2 TSE02 CB DSNT NE-E TCU OHD AND ALQDS SHRA DSNT E T03170217
KTPA 182153Z 27007KT 10SM BKN045TCU BKN340 32/23 A3004 RMK AO2 TSE02 SLP170 VIRGA W CB DSNT E-SE TCU OHD AND ALQDS SHRA DSNT E-SE T03220233
KTPA 182253Z COR 27009KT 10SM TS FEW055CB BKN340 32/23 A3003 RMK AO2 TSB29 SLP167 OCNL LTGCG VC NE TS VC NE MOV SW TS DVLPG AND DSIPTG RPDLY TCU NW-S T03220233
KTPA 182353Z 35006KT 10SM TS BKN037CB BKN060 BKN240 29/23 A3005 RMK AO2 WSHFT 2319 LTG DSNT N AND S AND SW RAB10E37 TSE06B13 SLP174 OCNL LTGCG S-SW AND NW-N TS S-SW AND NW-N MOV SW CB DSNT NE AND SE TCU NE AND S A
KTPA 190053Z 35005KT 10SM SCT037TCU BKN230 27/23 A3005 RMK AO2 TSE31 SLP176 OCNL LTGIC DSNT NW-N CB DSNT NW-N TCU S T02670228
KTPA 190153Z 35006KT 10SM BKN055 28/23 A3007 RMK AO2 LTG DSNT N AND NW SLP180 OCNL LTGIC DSNT NW CB DSNT NW T02780233
KTPA 190253Z 03003KT 10SM FEW035 FEW065 BKN300 28/23 A3007 RMK AO2 SLP180 T02830228 51006
KTPA 190353Z 03004KT 10SM BKN035 BKN250 28/23 A3008 RMK AO2 LTG DSNT N AND NW SLP184 T02830228
KTPA 190453Z VRB03KT 10SM FEW045 FEW250 28/23 A3006 RMK AO2 SLP179 T02830228 403280261
KTPA 190553Z 12005KT 10SM FEW080 FEW200 27/22 A3005 RMK AO2 SLP175 T02720222 10289 20267 58005
KTPA 190653Z 11004KT 10SM R01L/2000V3500FT FEW045 SCT190 27/22 A3003 RMK AO2 SLP169 T02670222
KTPA 190753Z VRB04KT 10SM R01L/2200V4000FT SCT050 SCT200 27/22 A3003 RMK AO2 SLP168 T02670217



Page loaded:  08:54 UTC  |   01:54 AM Pacific  |   02:54 AM Mountain  |   03:54 AM Central  |   04:54 AM Eastern

 

ADVISORIES

FORECASTS

FORECASTS

OBSERVATIONS

USER TOOLS

ABOUT US